Time;durP1;ratioP1;P1;durP2;ratioP2;P2;SDS_P1;SDS_P2;PMS_P1;PMS_P2;Temp;Humidity;BMP_temperature;BMP_pressure;BME280_temperature;BME280_humidity;BME280_pressure;Samples;Min_cycle;Max_cycle;Signal;HPM_P1;HPM_P2
2022/11/04 00:02:50;;;;;;;6.18;4.20;;;;;;;4.63;100.00;100514.50;10497079;28;20043;-69
2022/11/04 00:13:09;;;;;;;6.13;3.28;;;;;;;4.45;100.00;100531.78;10496473;28;20048;-69
2022/11/04 00:18:10;;;;;;;18.20;3.92;;;;;;;4.37;100.00;100519.28;10496577;28;20404;-69
2022/11/04 00:28:42;;;;;;;7.22;4.30;;;;;;;4.40;100.00;100528.69;10496100;28;20033;-69
2022/11/04 00:33:44;;;;;;;5.90;4.07;;;;;;;3.74;100.00;100447.22;10495508;28;20036;-69
2022/11/04 00:38:45;;;;;;;8.48;5.97;;;;;;;4.03;100.00;100495.66;10496164;28;20094;-69
2022/11/04 00:43:47;;;;;;;13.55;5.82;;;;;;;4.21;100.00;100521.47;10495806;28;20059;-69
2022/11/04 00:48:48;;;;;;;9.63;4.93;;;;;;;4.28;100.00;100515.59;10495421;28;20040;-69
2022/11/04 00:53:49;;;;;;;13.32;8.60;;;;;;;4.28;100.00;100506.88;10495944;28;20048;-69
2022/11/04 00:58:50;;;;;;;9.32;5.32;;;;;;;4.44;100.00;100522.25;10495543;28;20039;-69
2022/11/04 01:03:52;;;;;;;7.22;4.90;;;;;;;3.64;100.00;100371.75;10506401;28;20543;-69
2022/11/04 01:08:58;;;;;;;15.80;4.93;;;;;;;4.63;100.00;100519.78;10495580;28;20044;-69
2022/11/04 01:13:59;;;;;;;9.75;4.30;;;;;;;4.65;100.00;100517.03;10494457;28;20040;-69
2022/11/04 01:19:01;;;;;;;10.35;4.63;;;;;;;4.61;100.00;100510.34;10495075;28;20040;-69
2022/11/04 01:24:02;;;;;;;8.85;5.05;;;;;;;4.58;100.00;100496.50;10501213;28;20072;-69
2022/11/04 01:29:03;;;;;;;7.82;4.60;;;;;;;4.29;100.00;100427.00;10502862;28;20475;-69
2022/11/04 01:34:03;;;;;;;8.40;4.00;;;;;;;4.62;100.00;100485.72;10502953;28;20047;-69
2022/11/04 01:39:04;;;;;;;8.57;4.85;;;;;;;4.19;100.00;100416.41;10502669;28;20102;-69
2022/11/04 01:44:42;;;;;;;15.23;6.18;;;;;;;4.74;100.00;100503.13;10501629;28;20040;-69
2022/11/04 01:49:49;;;;;;;8.77;5.78;;;;;;;4.56;100.00;100474.72;10502654;28;20047;-69
2022/11/04 01:54:52;;;;;;;7.88;5.43;;;;;;;4.27;100.00;100421.03;10501517;28;20487;-69
2022/11/04 01:59:54;;;;;;;10.90;4.97;;;;;;;4.39;100.00;100429.72;10501128;28;20052;-69
2022/11/04 02:04:55;;;;;;;7.75;4.53;;;;;;;4.88;100.00;100483.56;10501173;28;20040;-69
2022/11/04 02:09:57;;;;;;;9.63;6.18;;;;;;;4.52;100.00;100411.97;10500874;28;20040;-69
2022/11/04 02:14:58;;;;;;;27.05;6.20;;;;;;;4.96;100.00;100494.25;10501112;28;20037;-69
2022/11/04 02:20:20;;;;;;;8.77;5.85;;;;;;;5.08;100.00;100487.97;10500895;28;20048;-69
2022/11/04 02:25:30;;;;;;;9.18;5.68;;;;;;;5.10;100.00;100487.84;10500842;28;20052;-69
2022/11/04 02:30:39;;;;;;;10.35;7.07;;;;;;;5.04;100.00;100476.03;10500634;28;20083;-69
2022/11/04 02:35:48;;;;;;;10.50;5.90;;;;;;;5.15;100.00;100481.25;10499535;28;20044;-69
2022/11/04 02:41:01;;;;;;;9.27;5.15;;;;;;;5.21;100.00;100472.00;10499349;28;20060;-69
2022/11/04 02:46:27;;;;;;;11.07;5.70;;;;;;;5.19;100.00;100471.28;10498120;28;20190;-69
2022/11/04 02:51:39;;;;;;;10.80;5.35;;;;;;;4.86;100.00;100420.50;10499287;28;20459;-69
2022/11/04 02:56:46;;;;;;;21.30;6.22;;;;;;;5.18;100.00;100449.38;10497774;28;20508;-69
2022/11/04 03:01:51;;;;;;;10.60;5.57;;;;;;;5.22;100.00;100427.06;10498792;28;20056;-69
2022/11/04 03:06:56;;;;;;;12.00;7.03;;;;;;;5.32;100.00;100450.81;10499309;28;20059;-69
2022/11/04 03:12:03;;;;;;;11.85;7.18;;;;;;;5.00;100.00;100375.41;10498553;28;20036;-69
2022/11/04 03:17:27;;;;;;;14.02;6.45;;;;;;;4.95;100.00;100340.75;10499108;28;20047;-69
2022/11/04 03:22:32;;;;;;;24.75;7.00;;;;;;;5.06;100.00;100304.78;10497860;28;20067;-69
2022/11/04 03:27:55;;;;;;;8.68;6.45;;;;;;;5.10;100.00;100374.63;10505643;28;20052;-69
2022/11/04 03:33:21;;;;;;;11.82;7.85;;;;;;;5.69;100.00;100452.94;10532697;28;20039;-69
2022/11/04 03:38:22;;;;;;;17.75;6.97;;;;;;;5.70;100.00;100446.69;10539704;28;20086;-69
2022/11/04 03:43:26;;;;;;;13.40;6.00;;;;;;;5.83;100.00;100449.88;10539554;28;20105;-69
2022/11/04 03:48:28;;;;;;;15.00;6.22;;;;;;;5.88;100.00;100437.16;10537807;28;20043;-69
2022/11/04 03:53:30;;;;;;;22.83;13.73;;;;;;;5.49;100.00;100349.25;10541335;28;20414;-69
2022/11/04 03:58:57;;;;;;;20.55;13.75;;;;;;;5.56;100.00;100333.72;10518972;28;20051;-69
2022/11/04 04:04:16;;;;;;;19.15;8.30;;;;;;;6.10;100.00;100411.53;10498735;28;20559;-69
2022/11/04 04:09:22;;;;;;;11.48;7.82;;;;;;;6.21;100.00;100413.22;10496804;28;20496;-69
2022/11/04 04:14:41;;;;;;;12.48;7.68;;;;;;;6.30;100.00;100417.66;10509520;28;20047;-69
2022/11/04 04:19:51;;;;;;;10.57;7.53;;;;;;;6.50;100.00;100427.25;10536524;28;20072;-69
2022/11/04 04:30:16;;;;;;;12.70;6.80;;;;;;;6.77;100.00;100415.13;10537338;28;20119;-69
2022/11/04 04:46:02;;;;;;;12.63;6.70;;;;;;;6.99;100.00;100438.56;10537651;28;20055;-69
2022/11/04 04:51:03;;;;;;;11.15;7.13;;;;;;;7.19;100.00;100426.16;10535982;28;20498;-69
2022/11/04 04:56:04;;;;;;;14.57;7.85;;;;;;;7.22;100.00;100411.81;10578424;28;20035;-68
2022/11/04 05:01:04;;;;;;;11.57;6.85;;;;;;;6.32;100.00;100260.06;10587604;28;20079;-69
2022/11/04 05:06:05;;;;;;;9.57;6.50;;;;;;;7.21;100.00;100421.56;10587634;28;20398;-69
2022/11/04 05:11:06;;;;;;;12.27;7.20;;;;;;;7.45;100.00;100446.63;10588609;28;20044;-69
2022/11/04 05:16:09;;;;;;;28.45;7.40;;;;;;;7.63;100.00;100457.25;10573021;28;20032;-69
2022/11/04 05:21:13;;;;;;;9.43;5.80;;;;;;;7.29;100.00;100395.22;10523057;28;20419;-69
2022/11/04 05:26:14;;;;;;;8.53;6.30;;;;;;;7.65;100.00;100477.28;10539987;28;20040;-69
2022/11/04 05:31:15;;;;;;;20.13;6.65;;;;;;;7.73;100.00;100469.47;10536566;28;20150;-69
2022/11/04 05:36:16;;;;;;;15.15;7.70;;;;;;;7.63;100.00;100459.91;10526075;28;20140;-69
2022/11/04 05:41:27;;;;;;;12.00;6.55;;;;;;;7.64;100.00;100504.72;10520878;28;20049;-68
2022/11/04 05:46:28;;;;;;;14.80;6.93;;;;;;;7.87;100.00;100539.59;10518977;28;20499;-67
2022/11/04 05:51:30;;;;;;;10.23;7.90;;;;;;;7.71;100.00;100529.59;10543911;28;20057;-68
2022/11/04 05:56:31;;;;;;;12.45;7.25;;;;;;;7.77;100.00;100579.25;10543921;28;20039;-68
2022/11/04 06:01:37;;;;;;;10.98;7.72;;;;;;;7.80;100.00;100583.44;10544190;28;20040;-68
2022/11/04 06:06:38;;;;;;;10.20;6.68;;;;;;;7.36;100.00;100497.72;10542717;28;20032;-69
2022/11/04 06:11:39;;;;;;;11.73;7.53;;;;;;;7.75;100.00;100573.31;10512656;28;20557;-69
2022/11/04 06:16:40;;;;;;;18.85;6.88;;;;;;;7.40;100.00;100504.41;10507733;28;20093;-68
2022/11/04 06:21:40;;;;;;;9.35;7.38;;;;;;;7.71;100.00;100563.97;10513974;28;20546;-70
2022/11/04 06:26:41;;;;;;;9.15;6.90;;;;;;;7.68;100.00;100564.25;10521104;28;20228;-69
2022/11/04 06:31:42;;;;;;;9.55;7.55;;;;;;;7.63;100.00;100565.66;10511638;28;20055;-69
2022/11/04 06:36:43;;;;;;;12.65;7.15;;;;;;;7.26;100.00;100525.00;10511114;28;20423;-68
2022/11/04 06:41:44;;;;;;;14.80;7.75;;;;;;;7.60;100.00;100581.81;10499746;28;20586;-67
2022/11/04 06:46:45;;;;;;;19.25;7.95;;;;;;;7.62;100.00;100606.31;10499592;28;20177;-67
2022/11/04 06:51:47;;;;;;;11.65;7.50;;;;;;;7.45;100.00;100594.66;10499725;28;20075;-66
2022/11/04 06:56:48;;;;;;;14.98;8.10;;;;;;;7.55;100.00;100611.34;10499051;28;20085;-66
2022/11/04 07:01:50;;;;;;;13.23;8.45;;;;;;;7.42;100.00;100589.63;10499352;28;20070;-67
2022/11/04 07:06:51;;;;;;;12.40;7.85;;;;;;;7.03;100.00;100526.28;10510156;28;20254;-67
2022/11/04 07:11:52;;;;;;;22.50;12.85;;;;;;;7.46;100.00;100575.19;10516190;28;20123;-68
2022/11/04 07:16:52;;;;;;;22.05;12.52;;;;;;;7.23;100.00;100538.50;10534362;28;20044;-69
2022/11/04 07:21:54;;;;;;;19.30;9.88;;;;;;;6.92;100.00;100492.13;10524282;28;20054;-69
2022/11/04 07:26:55;;;;;;;27.90;11.55;;;;;;;6.88;100.00;100525.03;10539522;28;20050;-69
2022/11/04 07:31:55;;;;;;;26.52;17.52;;;;;;;6.82;100.00;100518.50;10540385;28;20044;-68
2022/11/04 07:36:56;;;;;;;18.63;12.13;;;;;;;6.40;100.00;100424.63;10520501;28;20048;-68
2022/11/04 07:41:57;;;;;;;18.67;12.60;;;;;;;7.01;100.00;100496.53;10510710;28;20044;-68
2022/11/04 07:46:58;;;;;;;19.95;13.63;;;;;;;7.15;100.00;100498.75;10496489;28;20545;-68
2022/11/04 07:51:59;;;;;;;32.92;16.50;;;;;;;7.21;100.00;100515.81;10495564;28;20123;-67
2022/11/04 07:56:59;;;;;;;21.90;15.20;;;;;;;7.23;100.00;100475.06;10497400;28;20131;-68
2022/11/04 08:02:00;;;;;;;21.17;13.90;;;;;;;6.60;100.00;100362.06;10496902;28;20447;-68
2022/11/04 08:07:01;;;;;;;21.50;12.95;;;;;;;7.18;100.00;100465.91;10500428;28;20067;-68
2022/11/04 08:12:04;;;;;;;19.25;13.05;;;;;;;7.63;100.00;100585.03;10514633;28;20131;-68
2022/11/04 08:17:05;;;;;;;18.83;13.38;;;;;;;7.62;100.00;100598.38;10514037;28;20536;-69
2022/11/04 08:22:07;;;;;;;15.63;10.07;;;;;;;7.58;100.00;100563.47;10536365;28;20044;-63
2022/11/04 08:27:09;;;;;;;17.92;9.88;;;;;;;7.25;100.00;100507.47;10528138;28;20078;-70
2022/11/04 08:32:09;;;;;;;13.20;8.60;;;;;;;7.39;100.00;100547.63;10512970;28;20051;-67
2022/11/04 08:37:14;;;;;;;9.05;6.45;;;;;;;7.22;100.00;100541.28;10495918;28;20530;-68
2022/11/04 08:42:15;;;;;;;10.25;6.70;;;;;;;6.64;100.00;100441.81;10512062;28;20044;-67
2022/11/04 08:47:16;;;;;;;11.20;6.82;;;;;;;6.28;100.00;100380.88;10536841;28;20047;-66
2022/11/04 08:52:17;;;;;;;15.70;6.45;;;;;;;6.80;100.00;100454.47;10538095;28;20032;-67
2022/11/04 08:57:18;;;;;;;9.55;6.03;;;;;;;7.27;100.00;100539.91;10536586;28;20044;-66
2022/11/04 09:02:19;;;;;;;13.32;6.10;;;;;;;6.71;100.00;100436.81;10496366;28;20037;-66
2022/11/04 09:07:20;;;;;;;9.93;4.53;;;;;;;6.64;100.00;100412.78;10494813;28;20500;-66
2022/11/04 09:12:21;;;;;;;8.60;4.63;;;;;;;7.17;100.00;100490.69;10494163;28;20037;-65
2022/11/04 09:17:22;;;;;;;6.00;4.78;;;;;;;7.34;100.00;100470.63;10495131;28;20545;-66
2022/11/04 09:22:23;;;;;;;9.63;6.30;;;;;;;7.24;100.00;100389.56;10509413;28;20134;-67
2022/11/04 09:27:24;;;;;;;8.65;5.70;;;;;;;7.55;100.00;100411.25;10506063;28;20136;-67
2022/11/04 09:32:24;;;;;;;5.88;4.10;;;;;;;7.98;100.00;100475.06;10495598;28;20045;-68
2022/11/04 09:37:25;;;;;;;7.90;4.00;;;;;;;7.60;100.00;100410.84;10524137;28;20060;-68
2022/11/04 09:42:45;;;;;;;7.22;4.05;;;;;;;7.93;100.00;100475.50;10524233;28;20068;-69
2022/11/04 09:47:49;;;;;;;7.70;4.07;;;;;;;7.36;100.00;100411.34;10513747;28;20131;-69
2022/11/04 09:53:04;;;;;;;8.38;4.47;;;;;;;7.81;100.00;100467.91;10511808;28;20093;-69
2022/11/04 09:58:11;;;;;;;8.32;5.57;;;;;;;7.51;100.00;100398.50;10531521;28;20565;-68
2022/11/04 10:03:26;;;;;;;16.05;5.50;;;;;;;8.10;100.00;100473.88;10543785;28;20495;-68
2022/11/04 10:08:52;;;;;;;10.32;4.60;;;;;;;8.12;100.00;100468.44;10521029;28;20128;-68
2022/11/04 10:14:07;;;;;;;11.38;4.93;;;;;;;8.22;100.00;100467.38;10499810;28;20522;-69
2022/11/04 10:19:43;;;;;;;6.38;4.55;;;;;;;8.42;100.00;100462.00;10500372;28;20051;-68
2022/11/04 10:24:59;;;;;;;7.05;4.30;;;;;;;8.43;100.00;100467.13;10465538;28;20048;-69
2022/11/04 10:30:03;;;;;;;7.85;5.07;;;;;;;8.41;100.00;100471.75;10500156;28;20552;-69
2022/11/04 10:35:27;;;;;;;7.85;4.60;;;;;;;8.61;100.00;100467.13;10500116;28;20116;-69
2022/11/04 10:40:37;;;;;;;7.63;4.85;;;;;;;8.63;100.00;100428.09;10494024;28;20088;-69
2022/11/04 10:45:55;;;;;;;8.57;4.50;;;;;;;9.13;100.00;100429.28;10500089;28;20052;-69
2022/11/04 10:50:59;;;;;;;6.32;4.30;;;;;;;9.41;100.00;100419.31;10498146;28;20105;-69
2022/11/04 10:56:11;;;;;;;8.23;4.15;;;;;;;9.56;100.00;100425.66;10499715;28;20040;-67
2022/11/04 11:01:28;;;;;;;6.78;4.25;;;;;;;9.87;100.00;100432.25;10499965;28;20048;-69
2022/11/04 11:06:37;;;;;;;6.45;4.07;;;;;;;9.68;100.00;100378.47;10499384;28;20078;-69
2022/11/04 11:11:49;;;;;;;5.60;3.17;;;;;;;10.10;100.00;100445.75;10498850;28;20068;-68
2022/11/04 11:16:50;;;;;;;7.80;3.55;;;;;;;9.94;100.00;100475.72;10498301;28;20052;-69
2022/11/04 11:21:55;;;;;;;7.40;4.00;;;;;;;9.84;100.00;100475.84;10500616;28;20044;-69
2022/11/04 11:26:59;;;;;;;7.70;4.03;;;;;;;8.99;100.00;100326.50;10498801;28;20081;-69
2022/11/04 11:32:00;;;;;;;8.97;3.50;;;;;;;9.76;100.00;100462.56;10533013;28;20036;-69
2022/11/04 11:37:03;;;;;;;5.15;3.70;;;;;;;9.93;100.00;100474.91;10540302;28;20059;-69
2022/11/04 11:42:15;;;;;;;6.38;4.00;;;;;;;10.03;100.00;100494.16;10539572;28;20499;-69
2022/11/04 11:47:26;;;;;;;5.75;3.60;;;;;;;10.07;100.00;100489.38;10538938;28;20067;-69
2022/11/04 11:52:38;;;;;;;5.97;3.47;;;;;;;9.95;100.00;100472.06;10499372;28;20037;-69
2022/11/04 11:57:54;;;;;;;10.07;3.42;;;;;;;10.02;100.00;100494.31;10496549;28;20040;-69
2022/11/04 12:03:21;;;;;;;8.15;3.67;;;;;;;10.05;100.00;100489.53;10497192;28;20041;-69
2022/11/04 12:08:44;;;;;;;6.82;3.63;;;;;;;10.07;100.00;100498.16;10471135;28;20500;-69
2022/11/04 12:14:04;;;;;;;4.93;3.30;;;;;;;10.02;100.00;100492.53;10495622;28;20093;-69
2022/11/04 12:19:26;;;;;;;12.35;3.75;;;;;;;10.02;100.00;100471.28;10496108;28;20048;-68
2022/11/04 12:25:01;;;;;;;6.53;3.28;;;;;;;10.29;100.00;100498.59;10497195;28;20040;-69
2022/11/04 12:30:11;;;;;;;5.43;3.10;;;;;;;9.93;100.00;100443.06;10496244;28;20131;-69
2022/11/04 12:35:31;;;;;;;5.10;2.53;;;;;;;10.16;100.00;100490.22;10494420;28;20046;-69
2022/11/04 12:40:58;;;;;;;7.40;3.40;;;;;;;10.14;100.00;100498.38;10495369;28;20724;-69
2022/11/04 12:46:16;;;;;;;9.88;3.50;;;;;;;9.97;100.00;100507.25;10490351;28;20499;-69
2022/11/04 12:51:24;;;;;;;11.57;3.90;;;;;;;9.81;100.00;100502.69;10495909;28;20048;-70
2022/11/04 12:56:39;;;;;;;9.35;3.95;;;;;;;9.78;99.37;100508.31;10495647;28;20081;-70
2022/11/04 13:01:55;;;;;;;5.95;3.15;;;;;;;9.64;100.00;100522.19;10495171;28;20036;-69
2022/11/04 13:07:02;;;;;;;4.88;3.40;;;;;;;8.90;100.00;100440.38;10496055;28;20126;-70
2022/11/04 13:12:20;;;;;;;12.70;4.60;;;;;;;9.19;100.00;100525.88;10494885;28;20040;-70
2022/11/04 13:17:42;;;;;;;7.80;3.90;;;;;;;9.02;100.00;100512.50;10497705;28;20047;-70
2022/11/04 13:22:47;;;;;;;12.73;4.32;;;;;;;8.73;100.00;100512.75;10503509;28;20040;-70
2022/11/04 13:27:48;;;;;;;17.15;4.93;;;;;;;8.13;100.00;100433.03;10503698;28;20489;-71
2022/11/04 13:33:19;;;;;;;15.48;5.97;;;;;;;8.57;100.00;100524.03;10502881;28;20040;-70
2022/11/04 13:38:50;;;;;;;25.30;4.75;;;;;;;8.38;100.00;100535.59;10500911;28;20134;-71
2022/11/04 13:43:55;;;;;;;11.38;4.68;;;;;;;8.12;100.00;100532.78;10500123;28;20060;-70
2022/11/04 13:49:32;;;;;;;21.35;7.63;;;;;;;8.01;100.00;100528.50;10501835;28;20523;-70
2022/11/04 13:54:41;;;;;;;11.43;6.95;;;;;;;7.72;100.00;100509.31;10492682;28;20086;-69
2022/11/04 14:00:05;;;;;;;25.80;8.50;;;;;;;7.78;100.00;100520.13;10518915;28;20048;-70
2022/11/04 14:05:21;;;;;;;18.63;7.45;;;;;;;7.82;100.00;100533.06;10514735;28;20041;-69
2022/11/04 14:10:38;;;;;;;18.17;6.07;;;;;;;7.86;100.00;100531.78;10537792;28;20055;-69
2022/11/04 14:16:01;;;;;;;24.77;7.20;;;;;;;7.88;100.00;100527.19;10518457;28;20040;-69
2022/11/04 14:21:06;;;;;;;10.90;6.78;;;;;;;7.87;100.00;100525.53;10519942;28;20052;-70
2022/11/04 14:26:10;;;;;;;12.75;6.13;;;;;;;7.30;100.00;100433.09;10514205;28;20126;-68
2022/11/04 14:31:14;;;;;;;8.68;5.97;;;;;;;7.57;100.00;100479.84;10520442;28;20052;-69
2022/11/04 14:36:26;;;;;;;10.60;5.87;;;;;;;7.67;100.00;100509.72;10509262;28;20044;-71
2022/11/04 14:41:27;;;;;;;7.45;5.63;;;;;;;7.70;100.00;100506.78;10541701;28;20040;-72
2022/11/04 14:46:33;;;;;;;11.32;6.57;;;;;;;7.67;100.00;100495.69;10514551;28;20059;-70
2022/11/04 14:51:39;;;;;;;8.93;5.65;;;;;;;7.70;100.00;100498.03;10518561;28;20134;-71
2022/11/04 14:56:40;;;;;;;8.60;5.97;;;;;;;7.66;100.00;100499.31;10513280;28;20094;-72
2022/11/04 15:01:41;;;;;;;9.13;6.15;;;;;;;7.79;100.00;100507.72;10530958;28;20044;-71
2022/11/04 15:06:52;;;;;;;8.18;5.97;;;;;;;7.63;100.00;100479.28;10539282;28;20044;-70
2022/11/04 15:17:32;;;;;;;9.55;5.85;;;;;;;7.74;100.00;100483.53;10539649;28;20070;-71
2022/11/04 15:22:33;;;;;;;9.77;5.95;;;;;;;7.87;100.00;100489.31;10540563;28;20535;-71
2022/11/04 15:27:34;;;;;;;8.38;6.68;;;;;;;7.93;100.00;100499.31;10541075;28;20036;-71
2022/11/04 15:32:35;;;;;;;14.13;6.47;;;;;;;8.05;100.00;100518.47;10539542;28;20044;-71
2022/11/04 15:37:39;;;;;;;9.50;6.55;;;;;;;7.48;100.00;100427.88;10539127;28;20060;-71
2022/11/04 15:42:43;;;;;;;;;;;;;;;8.18;100.00;100508.34;10540051;28;20044;-71
2022/11/04 15:47:44;;;;;;;9.25;6.40;;;;;;;7.42;100.00;100417.84;10539278;28;19963;-71
2022/11/04 15:52:49;;;;;;;10.77;7.90;;;;;;;8.00;100.00;100504.84;10540002;28;20082;-71
2022/11/04 15:57:52;;;;;;;11.60;7.82;;;;;;;8.04;100.00;100522.09;10538589;28;20526;-70
2022/11/04 16:03:00;;;;;;;21.35;8.63;;;;;;;7.95;100.00;100502.63;10537293;28;20043;-71
2022/11/04 16:08:28;;;;;;;10.85;8.00;;;;;;;8.04;100.00;100514.13;10538300;28;20067;-71
2022/11/04 16:13:28;;;;;;;13.43;9.13;;;;;;;7.64;100.00;100465.06;10534957;28;20055;-71
2022/11/04 16:18:41;;;;;;;20.70;10.35;;;;;;;7.99;100.00;100511.94;10529436;28;20048;-71
2022/11/04 16:23:46;;;;;;;15.10;10.00;;;;;;;7.99;100.00;100504.03;10502378;28;20132;-71
2022/11/04 16:28:53;;;;;;;14.10;10.27;;;;;;;8.06;100.00;100512.19;10518350;28;20044;-71
2022/11/04 16:33:54;;;;;;;15.23;10.93;;;;;;;7.85;100.00;100474.59;10497970;28;20520;-71
2022/11/04 16:38:56;;;;;;;15.52;10.50;;;;;;;8.09;100.00;100508.41;10494980;28;20083;-70
2022/11/04 16:43:58;;;;;;;16.05;9.43;;;;;;;8.04;100.00;100487.69;10496582;28;20044;-70
2022/11/04 16:48:58;;;;;;;14.00;10.48;;;;;;;8.08;100.00;100485.59;10495708;28;20132;-70
2022/11/04 16:53:59;;;;;;;14.15;9.68;;;;;;;8.16;100.00;100496.25;10494813;28;20587;-71
2022/11/04 16:59:00;;;;;;;13.52;10.20;;;;;;;7.59;100.00;100388.00;10495378;28;20078;-71
2022/11/04 17:04:03;;;;;;;13.32;10.32;;;;;;;8.10;100.00;100465.09;10495376;28;20045;-71
2022/11/04 17:09:17;;;;;;;15.60;12.38;;;;;;;8.35;100.00;100504.09;10495931;28;20032;-71
2022/11/04 17:14:17;;;;;;;17.02;12.85;;;;;;;8.35;100.00;100490.84;10494603;28;20434;-71
2022/11/04 17:19:18;;;;;;;13.85;10.88;;;;;;;8.41;100.00;100494.75;10494356;28;20050;-71
2022/11/04 17:24:19;;;;;;;19.77;13.30;;;;;;;8.43;100.00;100496.22;10501044;28;20044;-69
2022/11/04 17:29:20;;;;;;;16.65;12.02;;;;;;;7.61;100.00;100349.03;10518325;28;20038;-70
2022/11/04 17:34:25;;;;;;;20.85;12.45;;;;;;;7.22;100.00;100293.75;10520237;28;20074;-70
2022/11/04 17:39:26;;;;;;;16.73;12.88;;;;;;;8.41;100.00;100487.63;10499837;28;20523;-70
2022/11/04 17:44:27;;;;;;;15.60;12.52;;;;;;;8.56;100.00;100514.41;10512863;28;20044;-70
2022/11/04 17:49:28;;;;;;;14.23;12.27;;;;;;;8.24;100.00;100459.31;10507320;28;20055;-71
2022/11/04 17:54:29;;;;;;;17.88;13.15;;;;;;;7.70;100.00;100366.66;10513828;28;20123;-70
2022/11/04 17:59:30;;;;;;;18.23;12.23;;;;;;;8.63;100.00;100518.13;10519866;28;20518;-70
2022/11/04 18:04:31;;;;;;;28.48;13.00;;;;;;;8.14;100.00;100426.78;10515252;28;20047;-70
2022/11/04 18:09:33;;;;;;;19.85;12.45;;;;;;;8.39;100.00;100473.72;10519952;28;20052;-69
2022/11/04 18:14:34;;;;;;;17.52;11.65;;;;;;;8.49;100.00;100480.75;10519525;28;20514;-70
2022/11/04 18:19:35;;;;;;;17.27;11.65;;;;;;;8.56;100.00;100492.41;10519166;28;20040;-69
2022/11/04 18:24:36;;;;;;;29.25;13.48;;;;;;;8.55;100.00;100491.56;10519025;28;20033;-70
2022/11/04 18:29:36;;;;;;;24.05;13.15;;;;;;;8.55;100.00;100488.06;10519370;28;20477;-69
2022/11/04 18:34:38;;;;;;;16.45;12.80;;;;;;;8.03;100.00;100398.72;10519847;28;20064;-70
2022/11/04 18:39:41;;;;;;;18.30;13.95;;;;;;;8.16;100.00;100425.63;10518845;28;20105;-69
2022/11/04 18:44:42;;;;;;;15.73;12.15;;;;;;;8.52;100.00;100489.22;10520051;28;20036;-70
2022/11/04 18:49:42;;;;;;;17.60;13.90;;;;;;;8.63;100.00;100486.34;10517955;28;20044;-69
2022/11/04 18:54:44;;;;;;;17.17;13.75;;;;;;;8.67;100.00;100493.00;10519235;28;20033;-70
2022/11/04 18:59:46;;;;;;;22.10;14.20;;;;;;;8.66;100.00;100488.69;10514481;28;20052;-69
2022/11/04 19:04:47;;;;;;;15.48;12.10;;;;;;;8.72;100.00;100481.94;10513535;28;20040;-69
2022/11/04 19:09:47;;;;;;;23.25;15.40;;;;;;;8.65;100.00;100478.25;10517701;28;20036;-70
2022/11/04 19:14:48;;;;;;;19.63;15.05;;;;;;;8.15;100.00;100389.59;10499379;28;20036;-69
2022/11/04 19:19:50;;;;;;;22.13;15.30;;;;;;;8.60;100.00;100470.75;10538459;28;20044;-69
2022/11/04 19:24:51;;;;;;;23.67;14.88;;;;;;;8.27;100.00;100402.59;10540610;28;20431;-69
2022/11/04 19:29:52;;;;;;;18.20;14.68;;;;;;;8.82;100.00;100489.81;10539583;28;20450;-69
2022/11/04 19:34:53;;;;;;;16.50;14.68;;;;;;;8.74;100.00;100469.41;10544143;28;20085;-70
2022/11/04 19:39:54;;;;;;;19.40;14.80;;;;;;;7.71;100.00;100310.13;10540009;28;20522;-69
2022/11/04 19:44:55;;;;;;;20.48;14.10;;;;;;;8.73;100.00;100490.72;10539762;28;20552;-69
2022/11/04 19:49:56;;;;;;;21.67;17.00;;;;;;;8.69;100.00;100487.56;10539440;28;20040;-69
2022/11/04 19:54:57;;;;;;;20.02;16.83;;;;;;;8.56;100.00;100468.59;10539984;28;20051;-69
2022/11/04 19:59:58;;;;;;;27.67;16.45;;;;;;;8.77;100.00;100492.09;10539838;28;20130;-69
2022/11/04 20:04:58;;;;;;;19.17;15.10;;;;;;;8.81;100.00;100493.44;10538518;28;20047;-69
2022/11/04 20:10:00;;;;;;;22.08;18.00;;;;;;;8.87;100.00;100482.25;10538292;28;20062;-69
2022/11/04 20:15:01;;;;;;;21.83;18.00;;;;;;;8.86;100.00;100486.72;10539470;28;20036;-70
2022/11/04 20:20:02;;;;;;;28.88;18.80;;;;;;;8.81;100.00;100456.38;10539573;28;20036;-69
2022/11/04 20:25:03;;;;;;;28.77;21.67;;;;;;;8.93;100.00;100460.44;10538350;28;20040;-69
2022/11/04 20:30:05;;;;;;;20.73;17.25;;;;;;;8.93;100.00;100472.84;10536963;28;20047;-69
2022/11/04 20:35:06;;;;;;;19.20;15.70;;;;;;;8.76;100.00;100446.22;10569849;28;20043;-69
2022/11/04 20:40:07;;;;;;;22.45;17.13;;;;;;;8.89;100.00;100470.50;10580690;28;20063;-69
2022/11/04 20:45:08;;;;;;;23.45;16.73;;;;;;;8.50;100.00;100390.59;10579419;28;20040;-69
2022/11/04 20:50:09;;;;;;;24.35;18.50;;;;;;;8.88;100.00;100462.69;10579184;27;20036;-69
2022/11/04 20:55:10;;;;;;;24.30;18.65;;;;;;;8.47;100.00;100380.31;10579859;28;20040;-69
2022/11/04 21:00:11;;;;;;;24.35;18.95;;;;;;;8.55;100.00;100398.88;10579962;28;20078;-69
2022/11/04 21:05:13;;;;;;;26.00;19.20;;;;;;;9.04;100.00;100462.84;10579917;28;20563;-69
2022/11/04 21:10:14;;;;;;;26.48;18.48;;;;;;;8.96;100.00;100452.16;10577632;28;20063;-69
2022/11/04 21:16:00;;;;;;;27.17;19.38;;;;;;;8.06;100.00;100324.34;10579127;28;20070;-69
2022/11/04 21:20:41;;;;;;;24.58;18.33;;;;;;;8.83;100.00;100460.53;10572474;28;20051;-70
2022/11/04 21:25:44;;;;;;;25.52;17.42;;;;;;;8.90;100.00;100484.56;10506165;28;20086;-69
2022/11/04 21:30:49;;;;;;;23.17;17.63;;;;;;;8.62;100.00;100426.44;10516112;28;20052;-70
2022/11/04 21:35:50;;;;;;;21.77;15.05;;;;;;;8.32;100.00;100387.09;10579195;28;20097;-69
2022/11/04 21:40:51;;;;;;;22.17;13.95;;;;;;;8.47;100.00;100408.59;10544410;28;20060;-69
2022/11/04 21:45:52;;;;;;;18.38;14.80;;;;;;;8.24;100.00;100366.66;10501972;28;20059;-69
2022/11/04 21:50:52;;;;;;;26.38;17.98;;;;;;;8.59;100.00;100455.03;10501902;28;20041;-70
2022/11/04 21:55:53;;;;;;;25.98;17.58;;;;;;;8.51;100.00;100445.19;10502558;28;20169;-69
2022/11/04 22:00:55;;;;;;;24.50;17.80;;;;;;;8.69;100.00;100469.00;10500808;28;20067;-69
2022/11/04 22:05:58;;;;;;;23.90;16.83;;;;;;;8.71;100.00;100468.88;10501872;28;20083;-69
2022/11/04 22:11:10;;;;;;;23.30;16.93;;;;;;;8.68;100.00;100478.78;10501054;28;20098;-69
2022/11/04 22:16:19;;;;;;;20.27;16.30;;;;;;;8.61;100.00;100482.19;10501535;28;20094;-69
2022/11/04 22:21:22;;;;;;;21.13;14.80;;;;;;;8.57;100.00;100486.94;10501408;28;20040;-70
2022/11/04 22:26:25;;;;;;;20.80;16.35;;;;;;;8.58;100.00;100499.19;10501042;28;20049;-69
2022/11/04 22:31:36;;;;;;;20.52;16.58;;;;;;;8.66;100.00;100501.09;10500695;28;20040;-69
2022/11/04 22:36:37;;;;;;;20.75;16.38;;;;;;;8.66;100.00;100504.56;10500699;28;20055;-69
2022/11/04 22:41:38;;;;;;;19.55;12.77;;;;;;;8.65;100.00;100500.28;10500624;28;20063;-69
2022/11/04 22:46:38;;;;;;;19.10;14.13;;;;;;;8.20;100.00;100421.72;10500121;28;20036;-69
2022/11/04 22:51:39;;;;;;;24.00;16.20;;;;;;;8.05;100.00;100388.84;10498926;28;20072;-69
2022/11/04 22:56:41;;;;;;;18.77;13.95;;;;;;;8.45;100.00;100451.91;10499283;28;20055;-69
2022/11/04 23:01:41;;;;;;;19.90;14.85;;;;;;;8.64;100.00;100482.69;10499029;28;20052;-69
2022/11/04 23:06:42;;;;;;;24.92;17.27;;;;;;;8.60;100.00;100475.22;10499133;28;20447;-70
2022/11/04 23:38:49;;;;;;;20.45;16.05;;;;;;;8.73;100.00;100498.66;10498169;28;20060;-69
2022/11/04 23:43:50;;;;;;;23.02;16.20;;;;;;;8.75;100.00;100494.88;10498536;28;20059;-69
